sensor_id;sensor_type;location;lat;lon;timestamp;temperature;humidity
28969;DHT22;16076;51.194;6.642;2022-07-05T00:01:04;17.50;99.90
28969;DHT22;16076;51.194;6.642;2022-07-05T00:03:30;17.50;99.90
28969;DHT22;16076;51.194;6.642;2022-07-05T00:05:56;17.50;99.90
28969;DHT22;16076;51.194;6.642;2022-07-05T00:08:22;17.60;99.90
28969;DHT22;16076;51.194;6.642;2022-07-05T00:10:48;17.60;99.90
28969;DHT22;16076;51.194;6.642;2022-07-05T00:13:14;17.60;99.90
28969;DHT22;16076;51.194;6.642;2022-07-05T00:15:40;17.60;99.90
28969;DHT22;16076;51.194;6.642;2022-07-05T00:18:06;17.50;99.90
28969;DHT22;16076;51.194;6.642;2022-07-05T00:20:32;17.50;99.90
28969;DHT22;16076;51.194;6.642;2022-07-05T00:22:58;17.40;99.90
28969;DHT22;16076;51.194;6.642;2022-07-05T00:25:24;17.40;99.90
28969;DHT22;16076;51.194;6.642;2022-07-05T00:27:52;17.40;99.90
28969;DHT22;16076;51.194;6.642;2022-07-05T00:30:19;17.30;99.90
28969;DHT22;16076;51.194;6.642;2022-07-05T00:32:45;17.20;99.90
28969;DHT22;16076;51.194;6.642;2022-07-05T00:35:11;17.20;99.90
28969;DHT22;16076;51.194;6.642;2022-07-05T00:37:37;17.20;99.90
28969;DHT22;16076;51.194;6.642;2022-07-05T00:40:04;17.20;99.90
28969;DHT22;16076;51.194;6.642;2022-07-05T00:42:30;17.10;99.90
28969;DHT22;16076;51.194;6.642;2022-07-05T00:44:56;17.10;99.90
28969;DHT22;16076;51.194;6.642;2022-07-05T00:47:22;17.00;99.90
28969;DHT22;16076;51.194;6.642;2022-07-05T00:49:48;16.90;99.90
28969;DHT22;16076;51.194;6.642;2022-07-05T00:52:15;16.90;99.90
28969;DHT22;16076;51.194;6.642;2022-07-05T00:54:41;16.80;99.90
28969;DHT22;16076;51.194;6.642;2022-07-05T00:57:07;16.80;99.90
28969;DHT22;16076;51.194;6.642;2022-07-05T00:59:34;16.70;99.90
28969;DHT22;16076;51.194;6.642;2022-07-05T01:02:00;16.60;99.90
28969;DHT22;16076;51.194;6.642;2022-07-05T01:04:25;16.50;99.90
28969;DHT22;16076;51.194;6.642;2022-07-05T01:06:53;16.50;99.90
28969;DHT22;16076;51.194;6.642;2022-07-05T01:09:21;16.40;99.90
28969;DHT22;16076;51.194;6.642;2022-07-05T01:11:48;16.40;99.90
28969;DHT22;16076;51.194;6.642;2022-07-05T01:14:23;16.30;99.90
28969;DHT22;16076;51.194;6.642;2022-07-05T01:16:50;16.30;99.90
28969;DHT22;16076;51.194;6.642;2022-07-05T01:19:19;16.30;99.90
28969;DHT22;16076;51.194;6.642;2022-07-05T01:21:48;16.30;99.90
28969;DHT22;16076;51.194;6.642;2022-07-05T01:24:16;16.30;99.90
28969;DHT22;16076;51.194;6.642;2022-07-05T01:26:46;16.30;99.90
28969;DHT22;16076;51.194;6.642;2022-07-05T01:29:14;16.20;99.90
28969;DHT22;16076;51.194;6.642;2022-07-05T01:31:45;16.20;99.90
28969;DHT22;16076;51.194;6.642;2022-07-05T01:34:11;16.20;99.90
28969;DHT22;16076;51.194;6.642;2022-07-05T01:36:37;16.20;99.90
28969;DHT22;16076;51.194;6.642;2022-07-05T01:39:05;16.30;99.90
28969;DHT22;16076;51.194;6.642;2022-07-05T01:41:31;16.40;99.90
28969;DHT22;16076;51.194;6.642;2022-07-05T01:43:56;16.40;99.90
28969;DHT22;16076;51.194;6.642;2022-07-05T01:46:24;16.50;99.90
28969;DHT22;16076;51.194;6.642;2022-07-05T01:48:54;16.50;99.90
28969;DHT22;16076;51.194;6.642;2022-07-05T01:51:24;16.50;99.90
28969;DHT22;16076;51.194;6.642;2022-07-05T01:53:52;16.50;99.90
28969;DHT22;16076;51.194;6.642;2022-07-05T01:56:18;16.50;99.90
28969;DHT22;16076;51.194;6.642;2022-07-05T01:58:44;16.40;99.90
28969;DHT22;16076;51.194;6.642;2022-07-05T02:01:12;16.40;99.90
28969;DHT22;16076;51.194;6.642;2022-07-05T02:03:39;16.40;99.90
28969;DHT22;16076;51.194;6.642;2022-07-05T02:06:05;16.50;99.90
28969;DHT22;16076;51.194;6.642;2022-07-05T02:08:33;16.50;99.90
28969;DHT22;16076;51.194;6.642;2022-07-05T02:10:58;16.50;99.90
28969;DHT22;16076;51.194;6.642;2022-07-05T02:13:26;16.50;99.90
28969;DHT22;16076;51.194;6.642;2022-07-05T02:15:53;16.40;99.90
28969;DHT22;16076;51.194;6.642;2022-07-05T02:18:21;16.40;99.90
28969;DHT22;16076;51.194;6.642;2022-07-05T02:20:47;16.30;99.90
28969;DHT22;16076;51.194;6.642;2022-07-05T02:23:17;16.20;99.90
28969;DHT22;16076;51.194;6.642;2022-07-05T02:25:43;16.20;99.90
28969;DHT22;16076;51.194;6.642;2022-07-05T02:28:13;16.20;99.90
28969;DHT22;16076;51.194;6.642;2022-07-05T02:30:41;16.20;99.90
28969;DHT22;16076;51.194;6.642;2022-07-05T02:33:07;16.30;99.90
28969;DHT22;16076;51.194;6.642;2022-07-05T02:35:33;16.20;99.90
28969;DHT22;16076;51.194;6.642;2022-07-05T02:37:59;16.10;99.90
28969;DHT22;16076;51.194;6.642;2022-07-05T02:40:24;16.10;99.90
28969;DHT22;16076;51.194;6.642;2022-07-05T02:42:50;16.00;99.90
28969;DHT22;16076;51.194;6.642;2022-07-05T02:45:16;16.00;99.90
28969;DHT22;16076;51.194;6.642;2022-07-05T02:47:41;16.00;99.90
28969;DHT22;16076;51.194;6.642;2022-07-05T02:50:09;16.10;99.90
28969;DHT22;16076;51.194;6.642;2022-07-05T02:52:36;16.10;99.90
28969;DHT22;16076;51.194;6.642;2022-07-05T02:55:03;16.10;99.90
28969;DHT22;16076;51.194;6.642;2022-07-05T02:57:33;16.10;99.90
28969;DHT22;16076;51.194;6.642;2022-07-05T03:00:02;16.20;99.90
28969;DHT22;16076;51.194;6.642;2022-07-05T03:02:28;16.30;99.90
28969;DHT22;16076;51.194;6.642;2022-07-05T03:04:57;16.30;99.90
28969;DHT22;16076;51.194;6.642;2022-07-05T03:07:26;16.30;99.90
28969;DHT22;16076;51.194;6.642;2022-07-05T03:09:51;16.30;99.90
28969;DHT22;16076;51.194;6.642;2022-07-05T03:12:17;16.20;99.90
28969;DHT22;16076;51.194;6.642;2022-07-05T03:14:43;16.30;99.90
28969;DHT22;16076;51.194;6.642;2022-07-05T03:17:08;16.30;99.90
28969;DHT22;16076;51.194;6.642;2022-07-05T03:19:34;16.30;99.90
28969;DHT22;16076;51.194;6.642;2022-07-05T03:22:00;16.30;99.90
28969;DHT22;16076;51.194;6.642;2022-07-05T03:24:26;16.30;99.90
28969;DHT22;16076;51.194;6.642;2022-07-05T03:26:54;16.30;99.90
28969;DHT22;16076;51.194;6.642;2022-07-05T03:29:20;16.30;99.90
28969;DHT22;16076;51.194;6.642;2022-07-05T03:31:47;16.30;99.90
28969;DHT22;16076;51.194;6.642;2022-07-05T03:34:13;16.40;99.90
28969;DHT22;16076;51.194;6.642;2022-07-05T03:36:41;16.40;99.90
28969;DHT22;16076;51.194;6.642;2022-07-05T03:39:09;16.30;99.90
28969;DHT22;16076;51.194;6.642;2022-07-05T03:41:38;16.20;99.90
28969;DHT22;16076;51.194;6.642;2022-07-05T03:44:03;16.10;99.90
28969;DHT22;16076;51.194;6.642;2022-07-05T03:46:29;16.10;99.90
28969;DHT22;16076;51.194;6.642;2022-07-05T03:48:55;16.00;99.90
28969;DHT22;16076;51.194;6.642;2022-07-05T03:51:21;16.00;99.90
28969;DHT22;16076;51.194;6.642;2022-07-05T03:53:49;16.00;99.90
28969;DHT22;16076;51.194;6.642;2022-07-05T03:56:17;16.10;99.90
28969;DHT22;16076;51.194;6.642;2022-07-05T03:58:47;16.10;99.90
28969;DHT22;16076;51.194;6.642;2022-07-05T04:01:13;16.20;99.90
28969;DHT22;16076;51.194;6.642;2022-07-05T04:03:39;16.20;99.90
28969;DHT22;16076;51.194;6.642;2022-07-05T04:06:06;16.10;99.90
28969;DHT22;16076;51.194;6.642;2022-07-05T04:08:31;16.00;99.90
28969;DHT22;16076;51.194;6.642;2022-07-05T04:10:57;15.90;99.90
28969;DHT22;16076;51.194;6.642;2022-07-05T04:13:23;15.80;99.90
28969;DHT22;16076;51.194;6.642;2022-07-05T04:15:48;15.80;99.90
28969;DHT22;16076;51.194;6.642;2022-07-05T04:18:15;15.70;99.90
28969;DHT22;16076;51.194;6.642;2022-07-05T04:20:42;15.70;99.90
28969;DHT22;16076;51.194;6.642;2022-07-05T04:23:08;15.70;99.90
28969;DHT22;16076;51.194;6.642;2022-07-05T04:25:36;15.60;99.90
28969;DHT22;16076;51.194;6.642;2022-07-05T04:28:02;15.70;99.90
28969;DHT22;16076;51.194;6.642;2022-07-05T04:30:28;15.60;99.90
28969;DHT22;16076;51.194;6.642;2022-07-05T04:32:54;15.60;99.90
28969;DHT22;16076;51.194;6.642;2022-07-05T04:35:21;15.60;99.90
28969;DHT22;16076;51.194;6.642;2022-07-05T04:37:49;15.60;99.90
28969;DHT22;16076;51.194;6.642;2022-07-05T04:40:15;15.60;99.90
28969;DHT22;16076;51.194;6.642;2022-07-05T04:42:41;15.70;99.90
28969;DHT22;16076;51.194;6.642;2022-07-05T04:45:08;15.70;99.90
28969;DHT22;16076;51.194;6.642;2022-07-05T04:47:34;15.70;99.90
28969;DHT22;16076;51.194;6.642;2022-07-05T04:50:01;15.70;99.90
28969;DHT22;16076;51.194;6.642;2022-07-05T04:52:27;15.70;99.90
28969;DHT22;16076;51.194;6.642;2022-07-05T04:54:56;15.80;99.90
28969;DHT22;16076;51.194;6.642;2022-07-05T04:57:22;15.90;99.90
28969;DHT22;16076;51.194;6.642;2022-07-05T04:59:50;16.00;99.90
28969;DHT22;16076;51.194;6.642;2022-07-05T05:02:16;16.10;99.90
28969;DHT22;16076;51.194;6.642;2022-07-05T05:04:44;16.30;99.90
28969;DHT22;16076;51.194;6.642;2022-07-05T05:07:10;16.30;99.90
28969;DHT22;16076;51.194;6.642;2022-07-05T05:09:36;16.50;99.90
28969;DHT22;16076;51.194;6.642;2022-07-05T05:12:02;16.60;99.90
28969;DHT22;16076;51.194;6.642;2022-07-05T05:14:28;16.70;99.90
28969;DHT22;16076;51.194;6.642;2022-07-05T05:16:53;16.80;99.90
28969;DHT22;16076;51.194;6.642;2022-07-05T05:19:19;16.90;99.90
28969;DHT22;16076;51.194;6.642;2022-07-05T05:21:46;17.00;99.90
28969;DHT22;16076;51.194;6.642;2022-07-05T05:24:11;17.20;99.90
28969;DHT22;16076;51.194;6.642;2022-07-05T05:26:37;17.20;99.90
28969;DHT22;16076;51.194;6.642;2022-07-05T05:29:03;17.40;99.90
28969;DHT22;16076;51.194;6.642;2022-07-05T05:31:29;17.50;99.90
28969;DHT22;16076;51.194;6.642;2022-07-05T05:33:54;17.60;99.90
28969;DHT22;16076;51.194;6.642;2022-07-05T05:36:25;17.70;99.90
28969;DHT22;16076;51.194;6.642;2022-07-05T05:38:53;17.90;99.90
28969;DHT22;16076;51.194;6.642;2022-07-05T05:41:19;18.00;99.90
28969;DHT22;16076;51.194;6.642;2022-07-05T05:43:47;18.10;99.90
28969;DHT22;16076;51.194;6.642;2022-07-05T05:46:13;18.20;99.90
28969;DHT22;16076;51.194;6.642;2022-07-05T05:48:38;18.30;99.90
28969;DHT22;16076;51.194;6.642;2022-07-05T05:51:04;18.40;99.90
28969;DHT22;16076;51.194;6.642;2022-07-05T05:53:30;18.50;99.90
28969;DHT22;16076;51.194;6.642;2022-07-05T05:55:56;18.60;99.90
28969;DHT22;16076;51.194;6.642;2022-07-05T05:58:23;18.70;99.90
28969;DHT22;16076;51.194;6.642;2022-07-05T06:00:49;18.80;99.90
28969;DHT22;16076;51.194;6.642;2022-07-05T06:03:19;18.90;99.90
28969;DHT22;16076;51.194;6.642;2022-07-05T06:05:45;19.00;99.90
28969;DHT22;16076;51.194;6.642;2022-07-05T06:08:11;19.10;99.90
28969;DHT22;16076;51.194;6.642;2022-07-05T06:10:39;19.20;99.90
28969;DHT22;16076;51.194;6.642;2022-07-05T06:13:07;19.20;99.90
28969;DHT22;16076;51.194;6.642;2022-07-05T06:15:34;19.30;99.90
28969;DHT22;16076;51.194;6.642;2022-07-05T06:18:00;19.40;99.90
28969;DHT22;16076;51.194;6.642;2022-07-05T06:20:28;19.50;99.90
28969;DHT22;16076;51.194;6.642;2022-07-05T06:22:55;19.60;99.90
28969;DHT22;16076;51.194;6.642;2022-07-05T06:25:21;19.60;99.90
28969;DHT22;16076;51.194;6.642;2022-07-05T06:27:49;19.70;99.90
28969;DHT22;16076;51.194;6.642;2022-07-05T06:30:25;19.70;99.90
28969;DHT22;16076;51.194;6.642;2022-07-05T06:32:52;19.70;99.90
28969;DHT22;16076;51.194;6.642;2022-07-05T06:35:18;19.80;99.90
28969;DHT22;16076;51.194;6.642;2022-07-05T06:37:50;19.90;99.90
28969;DHT22;16076;51.194;6.642;2022-07-05T06:40:27;20.00;99.90
28969;DHT22;16076;51.194;6.642;2022-07-05T06:42:55;20.10;99.90
28969;DHT22;16076;51.194;6.642;2022-07-05T06:45:21;20.10;99.90
28969;DHT22;16076;51.194;6.642;2022-07-05T06:50:26;20.20;99.90
28969;DHT22;16076;51.194;6.642;2022-07-05T06:52:52;20.20;99.90
28969;DHT22;16076;51.194;6.642;2022-07-05T06:55:21;20.20;99.90
28969;DHT22;16076;51.194;6.642;2022-07-05T06:57:47;20.20;99.90
28969;DHT22;16076;51.194;6.642;2022-07-05T07:00:14;20.30;99.90
28969;DHT22;16076;51.194;6.642;2022-07-05T07:02:43;20.40;99.90
28969;DHT22;16076;51.194;6.642;2022-07-05T07:05:08;20.50;99.90
28969;DHT22;16076;51.194;6.642;2022-07-05T07:07:37;20.50;99.90
28969;DHT22;16076;51.194;6.642;2022-07-05T07:10:21;20.60;99.90
28969;DHT22;16076;51.194;6.642;2022-07-05T07:12:46;20.70;99.90
28969;DHT22;16076;51.194;6.642;2022-07-05T07:15:12;20.80;99.90
28969;DHT22;16076;51.194;6.642;2022-07-05T07:17:41;20.70;99.90
28969;DHT22;16076;51.194;6.642;2022-07-05T07:20:08;20.70;99.90
28969;DHT22;16076;51.194;6.642;2022-07-05T07:22:34;20.90;99.90
28969;DHT22;16076;51.194;6.642;2022-07-05T07:25:00;21.00;99.90
28969;DHT22;16076;51.194;6.642;2022-07-05T07:27:26;21.10;99.90
28969;DHT22;16076;51.194;6.642;2022-07-05T07:29:51;21.20;99.90
28969;DHT22;16076;51.194;6.642;2022-07-05T07:32:17;21.30;99.90
28969;DHT22;16076;51.194;6.642;2022-07-05T07:34:46;21.40;99.90
28969;DHT22;16076;51.194;6.642;2022-07-05T07:37:12;21.40;99.40
28969;DHT22;16076;51.194;6.642;2022-07-05T07:39:40;21.40;99.70
28969;DHT22;16076;51.194;6.642;2022-07-05T07:42:07;21.50;99.40
28969;DHT22;16076;51.194;6.642;2022-07-05T07:44:33;21.60;98.90
28969;DHT22;16076;51.194;6.642;2022-07-05T07:46:59;21.70;97.70
28969;DHT22;16076;51.194;6.642;2022-07-05T07:49:24;21.70;96.50
28969;DHT22;16076;51.194;6.642;2022-07-05T07:51:51;21.80;97.30
28969;DHT22;16076;51.194;6.642;2022-07-05T07:54:17;21.80;97.50
28969;DHT22;16076;51.194;6.642;2022-07-05T07:56:43;21.90;96.80
28969;DHT22;16076;51.194;6.642;2022-07-05T07:59:10;21.90;96.40
28969;DHT22;16076;51.194;6.642;2022-07-05T08:01:36;22.10;96.10
28969;DHT22;16076;51.194;6.642;2022-07-05T08:04:02;22.40;96.20
28969;DHT22;16076;51.194;6.642;2022-07-05T08:06:27;22.60;95.10
28969;DHT22;16076;51.194;6.642;2022-07-05T08:08:55;22.70;95.20
28969;DHT22;16076;51.194;6.642;2022-07-05T08:11:22;22.90;95.30
28969;DHT22;16076;51.194;6.642;2022-07-05T08:13:47;23.00;95.50
28969;DHT22;16076;51.194;6.642;2022-07-05T08:16:13;23.10;94.10
28969;DHT22;16076;51.194;6.642;2022-07-05T08:18:39;23.20;92.80
28969;DHT22;16076;51.194;6.642;2022-07-05T08:21:25;23.20;92.70
28969;DHT22;16076;51.194;6.642;2022-07-05T08:24:10;23.20;93.30
28969;DHT22;16076;51.194;6.642;2022-07-05T08:26:38;23.10;92.00
28969;DHT22;16076;51.194;6.642;2022-07-05T08:29:06;23.10;92.90
28969;DHT22;16076;51.194;6.642;2022-07-05T08:31:35;23.10;91.70
28969;DHT22;16076;51.194;6.642;2022-07-05T08:34:02;23.10;91.60
28969;DHT22;16076;51.194;6.642;2022-07-05T08:36:27;22.90;91.30
28969;DHT22;16076;51.194;6.642;2022-07-05T08:38:56;23.00;91.90
28969;DHT22;16076;51.194;6.642;2022-07-05T08:41:24;23.10;92.10
28969;DHT22;16076;51.194;6.642;2022-07-05T08:43:51;23.40;91.40
28969;DHT22;16076;51.194;6.642;2022-07-05T08:46:20;23.50;92.90
28969;DHT22;16076;51.194;6.642;2022-07-05T08:48:51;23.70;91.90
28969;DHT22;16076;51.194;6.642;2022-07-05T08:51:22;23.80;92.30
28969;DHT22;16076;51.194;6.642;2022-07-05T08:53:50;24.10;91.50
28969;DHT22;16076;51.194;6.642;2022-07-05T08:56:17;24.40;90.70
28969;DHT22;16076;51.194;6.642;2022-07-05T08:58:43;24.60;91.00
28969;DHT22;16076;51.194;6.642;2022-07-05T09:01:10;24.80;90.40
28969;DHT22;16076;51.194;6.642;2022-07-05T09:03:43;24.90;90.40
28969;DHT22;16076;51.194;6.642;2022-07-05T09:06:12;24.80;90.10
28969;DHT22;16076;51.194;6.642;2022-07-05T09:08:39;24.80;89.40
28969;DHT22;16076;51.194;6.642;2022-07-05T09:11:10;24.60;90.40
28969;DHT22;16076;51.194;6.642;2022-07-05T09:13:38;24.40;90.30
28969;DHT22;16076;51.194;6.642;2022-07-05T09:16:04;24.20;90.30
28969;DHT22;16076;51.194;6.642;2022-07-05T09:21:17;24.10;90.80
28969;DHT22;16076;51.194;6.642;2022-07-05T09:23:45;24.20;91.10
28969;DHT22;16076;51.194;6.642;2022-07-05T09:26:11;24.20;90.50
28969;DHT22;16076;51.194;6.642;2022-07-05T09:28:37;24.40;90.90
28969;DHT22;16076;51.194;6.642;2022-07-05T09:31:03;24.70;87.00
28969;DHT22;16076;51.194;6.642;2022-07-05T09:33:28;25.00;88.00
28969;DHT22;16076;51.194;6.642;2022-07-05T09:35:55;25.10;87.20
28969;DHT22;16076;51.194;6.642;2022-07-05T09:38:25;25.10;85.80
28969;DHT22;16076;51.194;6.642;2022-07-05T09:40:53;25.00;86.50
28969;DHT22;16076;51.194;6.642;2022-07-05T09:43:21;24.90;88.40
28969;DHT22;16076;51.194;6.642;2022-07-05T09:48:21;24.70;83.50
28969;DHT22;16076;51.194;6.642;2022-07-05T09:50:50;24.80;87.10
28969;DHT22;16076;51.194;6.642;2022-07-05T09:53:21;25.10;85.90
28969;DHT22;16076;51.194;6.642;2022-07-05T09:56:16;25.20;83.70
28969;DHT22;16076;51.194;6.642;2022-07-05T09:58:43;24.90;82.50
28969;DHT22;16076;51.194;6.642;2022-07-05T10:03:59;24.80;82.50
28969;DHT22;16076;51.194;6.642;2022-07-05T10:06:30;24.80;84.50
28969;DHT22;16076;51.194;6.642;2022-07-05T10:08:56;25.10;83.60
28969;DHT22;16076;51.194;6.642;2022-07-05T10:11:25;25.40;80.80
28969;DHT22;16076;51.194;6.642;2022-07-05T10:13:53;25.30;80.30
28969;DHT22;16076;51.194;6.642;2022-07-05T10:16:22;25.10;82.30
28969;DHT22;16076;51.194;6.642;2022-07-05T10:18:54;24.90;83.00
28969;DHT22;16076;51.194;6.642;2022-07-05T10:21:20;24.80;84.60
28969;DHT22;16076;51.194;6.642;2022-07-05T10:23:48;24.80;80.90
28969;DHT22;16076;51.194;6.642;2022-07-05T10:26:16;24.90;84.20
28969;DHT22;16076;51.194;6.642;2022-07-05T10:28:48;25.20;81.00
28969;DHT22;16076;51.194;6.642;2022-07-05T10:31:15;25.70;81.00
28969;DHT22;16076;51.194;6.642;2022-07-05T10:33:42;26.40;75.60
28969;DHT22;16076;51.194;6.642;2022-07-05T10:36:12;26.70;73.70
28969;DHT22;16076;51.194;6.642;2022-07-05T10:38:41;26.90;70.60
28969;DHT22;16076;51.194;6.642;2022-07-05T10:41:10;26.60;72.20
28969;DHT22;16076;51.194;6.642;2022-07-05T10:43:38;26.20;73.20
28969;DHT22;16076;51.194;6.642;2022-07-05T10:46:03;25.80;73.40
28969;DHT22;16076;51.194;6.642;2022-07-05T10:48:33;25.40;76.30
28969;DHT22;16076;51.194;6.642;2022-07-05T10:51:01;25.10;77.50
28969;DHT22;16076;51.194;6.642;2022-07-05T10:58:39;24.80;78.50
28969;DHT22;16076;51.194;6.642;2022-07-05T11:06:28;25.70;70.10
28969;DHT22;16076;51.194;6.642;2022-07-05T11:11:36;26.40;72.00
28969;DHT22;16076;51.194;6.642;2022-07-05T11:14:04;26.60;73.00
28969;DHT22;16076;51.194;6.642;2022-07-05T11:16:35;26.40;73.70
28969;DHT22;16076;51.194;6.642;2022-07-05T11:19:09;26.20;72.90
28969;DHT22;16076;51.194;6.642;2022-07-05T11:21:37;25.80;71.80
28969;DHT22;16076;51.194;6.642;2022-07-05T11:24:25;25.70;74.30
28969;DHT22;16076;51.194;6.642;2022-07-05T11:26:57;25.50;72.00
28969;DHT22;16076;51.194;6.642;2022-07-05T11:29:43;25.30;74.10
28969;DHT22;16076;51.194;6.642;2022-07-05T11:32:23;25.20;73.10
28969;DHT22;16076;51.194;6.642;2022-07-05T11:34:49;25.00;74.70
28969;DHT22;16076;51.194;6.642;2022-07-05T11:37:19;24.90;73.80
28969;DHT22;16076;51.194;6.642;2022-07-05T11:42:50;24.90;73.60
28969;DHT22;16076;51.194;6.642;2022-07-05T11:45:19;25.00;73.00
28969;DHT22;16076;51.194;6.642;2022-07-05T11:47:45;25.20;74.20
28969;DHT22;16076;51.194;6.642;2022-07-05T11:50:12;25.30;72.60
28969;DHT22;16076;51.194;6.642;2022-07-05T11:52:38;25.50;76.00
28969;DHT22;16076;51.194;6.642;2022-07-05T11:55:09;25.80;70.40
28969;DHT22;16076;51.194;6.642;2022-07-05T11:57:36;26.00;69.40
28969;DHT22;16076;51.194;6.642;2022-07-05T12:00:03;26.20;69.10
28969;DHT22;16076;51.194;6.642;2022-07-05T12:02:30;26.30;69.80
28969;DHT22;16076;51.194;6.642;2022-07-05T12:04:56;26.60;68.80
28969;DHT22;16076;51.194;6.642;2022-07-05T12:07:33;26.90;68.00
28969;DHT22;16076;51.194;6.642;2022-07-05T12:10:01;27.10;67.60
28969;DHT22;16076;51.194;6.642;2022-07-05T12:12:48;27.10;68.00
28969;DHT22;16076;51.194;6.642;2022-07-05T12:15:18;27.20;67.80
28969;DHT22;16076;51.194;6.642;2022-07-05T12:17:47;27.40;67.80
28969;DHT22;16076;51.194;6.642;2022-07-05T12:20:21;27.30;69.40
28969;DHT22;16076;51.194;6.642;2022-07-05T12:22:48;27.00;65.70
28969;DHT22;16076;51.194;6.642;2022-07-05T12:25:20;26.60;67.00
28969;DHT22;16076;51.194;6.642;2022-07-05T12:27:48;26.50;68.50
28969;DHT22;16076;51.194;6.642;2022-07-05T12:30:15;26.30;67.00
28969;DHT22;16076;51.194;6.642;2022-07-05T12:32:57;26.20;68.00
28969;DHT22;16076;51.194;6.642;2022-07-05T12:35:39;26.30;68.40
28969;DHT22;16076;51.194;6.642;2022-07-05T12:38:13;26.30;68.80
28969;DHT22;16076;51.194;6.642;2022-07-05T12:40:57;26.60;68.90
28969;DHT22;16076;51.194;6.642;2022-07-05T12:43:23;27.00;66.50
28969;DHT22;16076;51.194;6.642;2022-07-05T12:46:18;27.30;67.50
28969;DHT22;16076;51.194;6.642;2022-07-05T12:48:51;27.60;64.00
28969;DHT22;16076;51.194;6.642;2022-07-05T12:51:34;27.60;62.60
28969;DHT22;16076;51.194;6.642;2022-07-05T12:54:00;27.60;65.00
28969;DHT22;16076;51.194;6.642;2022-07-05T12:56:53;27.70;64.50
28969;DHT22;16076;51.194;6.642;2022-07-05T12:59:38;28.10;62.60
28969;DHT22;16076;51.194;6.642;2022-07-05T13:02:06;28.50;60.80
28969;DHT22;16076;51.194;6.642;2022-07-05T13:04:32;29.00;59.20
28969;DHT22;16076;51.194;6.642;2022-07-05T13:07:00;29.90;58.40
28969;DHT22;16076;51.194;6.642;2022-07-05T13:09:30;30.60;55.40
28969;DHT22;16076;51.194;6.642;2022-07-05T13:14:33;32.00;53.50
28969;DHT22;16076;51.194;6.642;2022-07-05T13:16:59;32.50;51.50
28969;DHT22;16076;51.194;6.642;2022-07-05T13:19:27;32.20;53.00
28969;DHT22;16076;51.194;6.642;2022-07-05T13:21:52;31.70;53.90
28969;DHT22;16076;51.194;6.642;2022-07-05T13:24:20;32.30;53.10
28969;DHT22;16076;51.194;6.642;2022-07-05T13:26:46;33.40;50.90
28969;DHT22;16076;51.194;6.642;2022-07-05T13:29:14;33.70;49.10
28969;DHT22;16076;51.194;6.642;2022-07-05T13:31:43;33.60;49.40
28969;DHT22;16076;51.194;6.642;2022-07-05T13:34:12;33.60;49.20
28969;DHT22;16076;51.194;6.642;2022-07-05T13:36:38;33.50;49.00
28969;DHT22;16076;51.194;6.642;2022-07-05T13:39:03;33.70;48.60
28969;DHT22;16076;51.194;6.642;2022-07-05T13:41:29;34.10;48.30
28969;DHT22;16076;51.194;6.642;2022-07-05T13:43:57;34.10;48.60
28969;DHT22;16076;51.194;6.642;2022-07-05T13:46:23;33.60;48.10
28969;DHT22;16076;51.194;6.642;2022-07-05T13:48:49;32.80;48.80
28969;DHT22;16076;51.194;6.642;2022-07-05T13:51:15;31.90;49.60
28969;DHT22;16076;51.194;6.642;2022-07-05T13:53:43;31.20;50.60
28969;DHT22;16076;51.194;6.642;2022-07-05T13:56:11;30.90;51.40
28969;DHT22;16076;51.194;6.642;2022-07-05T13:58:37;30.90;52.10
28969;DHT22;16076;51.194;6.642;2022-07-05T14:01:03;31.00;52.30
28969;DHT22;16076;51.194;6.642;2022-07-05T14:03:29;31.80;52.60
28969;DHT22;16076;51.194;6.642;2022-07-05T14:05:58;32.80;51.60
28969;DHT22;16076;51.194;6.642;2022-07-05T14:08:24;33.20;49.20
28969;DHT22;16076;51.194;6.642;2022-07-05T14:10:54;33.40;48.00
28969;DHT22;16076;51.194;6.642;2022-07-05T14:13:22;33.60;47.60
28969;DHT22;16076;51.194;6.642;2022-07-05T14:15:50;33.80;47.70
28969;DHT22;16076;51.194;6.642;2022-07-05T14:18:19;34.50;47.20
28969;DHT22;16076;51.194;6.642;2022-07-05T14:20:46;35.30;45.80
28969;DHT22;16076;51.194;6.642;2022-07-05T14:23:13;35.70;43.60
28969;DHT22;16076;51.194;6.642;2022-07-05T14:25:42;35.10;44.80
28969;DHT22;16076;51.194;6.642;2022-07-05T14:28:09;33.80;45.80
28969;DHT22;16076;51.194;6.642;2022-07-05T14:30:40;32.40;49.40
28969;DHT22;16076;51.194;6.642;2022-07-05T14:33:06;31.60;51.00
28969;DHT22;16076;51.194;6.642;2022-07-05T14:35:33;31.00;52.90
28969;DHT22;16076;51.194;6.642;2022-07-05T14:37:59;31.20;54.70
28969;DHT22;16076;51.194;6.642;2022-07-05T14:40:28;31.90;53.50
28969;DHT22;16076;51.194;6.642;2022-07-05T14:42:56;32.30;52.30
28969;DHT22;16076;51.194;6.642;2022-07-05T14:45:23;32.60;52.20
28969;DHT22;16076;51.194;6.642;2022-07-05T14:47:54;32.10;51.90
28969;DHT22;16076;51.194;6.642;2022-07-05T14:50:22;31.20;53.30
28969;DHT22;16076;51.194;6.642;2022-07-05T14:52:48;30.50;54.90
28969;DHT22;16076;51.194;6.642;2022-07-05T14:55:15;30.20;55.90
28969;DHT22;16076;51.194;6.642;2022-07-05T14:57:41;30.30;56.10
28969;DHT22;16076;51.194;6.642;2022-07-05T15:00:10;31.10;54.90
28969;DHT22;16076;51.194;6.642;2022-07-05T15:02:36;32.30;53.90
28969;DHT22;16076;51.194;6.642;2022-07-05T15:05:03;32.60;52.10
28969;DHT22;16076;51.194;6.642;2022-07-05T15:07:29;31.90;52.40
28969;DHT22;16076;51.194;6.642;2022-07-05T15:09:55;30.70;53.70
28969;DHT22;16076;51.194;6.642;2022-07-05T15:12:21;29.70;55.80
28969;DHT22;16076;51.194;6.642;2022-07-05T15:14:47;28.80;56.80
28969;DHT22;16076;51.194;6.642;2022-07-05T15:17:13;28.00;58.20
28969;DHT22;16076;51.194;6.642;2022-07-05T15:19:39;27.60;60.20
28969;DHT22;16076;51.194;6.642;2022-07-05T15:22:06;28.10;59.40
28969;DHT22;16076;51.194;6.642;2022-07-05T15:24:32;29.00;59.30
28969;DHT22;16076;51.194;6.642;2022-07-05T15:26:57;29.00;57.90
28969;DHT22;16076;51.194;6.642;2022-07-05T15:29:26;28.40;58.70
28969;DHT22;16076;51.194;6.642;2022-07-05T15:31:54;27.80;60.00
28969;DHT22;16076;51.194;6.642;2022-07-05T15:34:20;27.30;60.60
28969;DHT22;16076;51.194;6.642;2022-07-05T15:36:46;27.20;62.10
28969;DHT22;16076;51.194;6.642;2022-07-05T15:39:11;28.10;61.10
28969;DHT22;16076;51.194;6.642;2022-07-05T15:41:37;29.30;57.90
28969;DHT22;16076;51.194;6.642;2022-07-05T15:44:04;29.50;57.60
28969;DHT22;16076;51.194;6.642;2022-07-05T15:46:30;29.30;57.00
28969;DHT22;16076;51.194;6.642;2022-07-05T15:49:17;29.70;57.20
28969;DHT22;16076;51.194;6.642;2022-07-05T15:51:44;30.90;55.70
28969;DHT22;16076;51.194;6.642;2022-07-05T15:54:10;31.30;54.40
28969;DHT22;16076;51.194;6.642;2022-07-05T15:56:36;31.40;55.20
28969;DHT22;16076;51.194;6.642;2022-07-05T15:59:04;31.10;54.20
28969;DHT22;16076;51.194;6.642;2022-07-05T16:01:30;31.00;54.40
28969;DHT22;16076;51.194;6.642;2022-07-05T16:03:57;30.30;55.10